createdAt,value
2017-11-22T00:03:34.555Z,89.00
2017-11-22T00:06:03.027Z,88.20
2017-11-22T00:08:33.816Z,88.40
2017-11-22T00:11:01.547Z,88.20
2017-11-22T00:13:29.188Z,89.60
2017-11-22T00:15:56.822Z,89.80
2017-11-22T00:18:24.541Z,89.50
2017-11-22T00:20:52.192Z,90.30
2017-11-22T00:23:19.839Z,89.80
2017-11-22T00:25:47.551Z,89.40
2017-11-22T00:28:15.189Z,90.10
2017-11-22T00:30:43.338Z,91.50
2017-11-22T00:33:11.062Z,91.70
2017-11-22T00:35:39.544Z,91.90
2017-11-22T00:38:07.183Z,91.30
2017-11-22T00:40:34.881Z,90.70
2017-11-22T00:43:02.528Z,90.70
2017-11-22T00:45:30.168Z,91.10
2017-11-22T00:47:58.852Z,90.80
2017-11-22T00:50:27.292Z,90.60
2017-11-22T00:52:55.784Z,91.10
2017-11-22T00:55:23.961Z,90.60
2017-11-22T00:57:53.618Z,89.00
2017-11-22T01:00:21.275Z,91.30
2017-11-22T01:02:49.000Z,92.20
2017-11-22T01:05:16.649Z,91.50
2017-11-22T01:07:45.057Z,89.50
2017-11-22T01:10:12.754Z,88.00
2017-11-22T01:12:40.390Z,88.10
2017-11-22T01:15:08.875Z,88.80
2017-11-22T01:17:36.603Z,88.90
2017-11-22T01:20:04.259Z,91.60
2017-11-22T01:22:32.260Z,92.30
2017-11-22T01:24:59.958Z,93.20
2017-11-22T01:30:11.034Z,93.10
2017-11-22T01:32:38.406Z,93.80
2017-11-22T01:37:35.656Z,93.90
2017-11-22T01:40:03.298Z,93.70
2017-11-22T01:42:31.424Z,93.30
2017-11-22T01:44:59.208Z,92.70
2017-11-22T01:47:26.848Z,91.80
2017-11-22T01:49:54.498Z,90.20
2017-11-22T01:52:22.192Z,90.30
2017-11-22T01:54:49.848Z,90.00
2017-11-22T01:57:17.467Z,90.20
2017-11-22T01:59:45.198Z,90.80
2017-11-22T02:02:12.845Z,90.70
2017-11-22T02:04:41.459Z,91.10
2017-11-22T02:07:09.157Z,91.00
2017-11-22T02:09:36.792Z,90.30
2017-11-22T02:12:05.283Z,90.80
2017-11-22T02:14:32.998Z,91.50
2017-11-22T02:17:00.637Z,91.00
2017-11-22T02:19:28.781Z,90.10
2017-11-22T02:21:56.474Z,90.40
2017-11-22T02:24:24.114Z,90.00
2017-11-22T02:26:51.795Z,89.60
2017-11-22T02:29:19.496Z,90.00
2017-11-22T02:34:26.330Z,90.70
2017-11-22T02:36:53.988Z,92.50
2017-11-22T02:39:21.634Z,92.30
2017-11-22T02:41:49.329Z,91.40
2017-11-22T02:44:16.971Z,90.00
2017-11-22T02:46:44.623Z,91.40
2017-11-22T02:49:12.339Z,92.60
2017-11-22T02:51:39.978Z,92.70
2017-11-22T02:54:08.448Z,92.00
2017-11-22T02:56:36.131Z,90.90
2017-11-22T02:59:04.606Z,90.30
2017-11-22T03:01:32.247Z,92.00
2017-11-22T03:03:59.956Z,91.00
2017-11-22T03:06:27.596Z,90.30
2017-11-22T03:08:55.238Z,89.70
2017-11-22T03:11:22.941Z,91.00
2017-11-22T03:13:50.589Z,91.60
2017-11-22T03:16:18.242Z,90.80
2017-11-22T03:18:45.930Z,91.40
2017-11-22T03:21:13.562Z,91.10
2017-11-22T03:23:41.229Z,90.60
2017-11-22T03:26:08.939Z,90.30
2017-11-22T03:28:36.586Z,90.20
2017-11-22T03:31:05.075Z,89.80
2017-11-22T03:33:32.789Z,91.00
2017-11-22T03:36:00.438Z,91.40
2017-11-22T03:38:28.082Z,91.70
2017-11-22T03:40:55.782Z,90.30
2017-11-22T03:43:23.422Z,90.60
2017-11-22T03:45:51.067Z,91.90
2017-11-22T03:48:18.789Z,91.20
2017-11-22T03:50:52.998Z,90.60
2017-11-22T03:53:26.394Z,90.50
2017-11-22T04:01:01.271Z,89.30
2017-11-22T04:03:28.924Z,90.90
2017-11-22T04:05:56.571Z,91.20
2017-11-22T04:10:55.103Z,91.70
2017-11-22T04:13:22.770Z,90.80
2017-11-22T04:15:50.468Z,90.80
2017-11-22T04:18:20.072Z,89.70
2017-11-22T04:20:53.341Z,89.50
2017-11-22T04:23:21.062Z,89.50
2017-11-22T04:25:48.700Z,88.70
2017-11-22T04:28:16.403Z,90.90
2017-11-22T04:30:44.059Z,91.60
2017-11-22T04:33:11.711Z,92.20
2017-11-22T04:35:40.142Z,92.90
2017-11-22T04:38:07.782Z,93.40
2017-11-22T04:40:35.428Z,93.20
2017-11-22T04:43:03.583Z,92.90
2017-11-22T04:45:32.173Z,91.70
2017-11-22T04:47:59.813Z,91.00
2017-11-22T04:50:27.536Z,89.30
2017-11-22T04:52:55.172Z,90.30
2017-11-22T04:55:22.807Z,91.60
2017-11-22T04:57:50.515Z,91.40
2017-11-22T05:00:18.163Z,91.00
2017-11-22T05:02:45.806Z,92.10
2017-11-22T05:05:13.540Z,91.00
2017-11-22T05:07:41.186Z,90.70
2017-11-22T05:10:08.835Z,89.60
2017-11-22T05:12:36.538Z,89.20
2017-11-22T05:15:04.175Z,88.90
2017-11-22T05:17:31.824Z,87.80
2017-11-22T05:19:59.547Z,88.10
2017-11-22T05:22:27.190Z,87.80
2017-11-22T05:24:55.784Z,88.30
2017-11-22T05:30:02.577Z,88.10
2017-11-22T05:32:30.262Z,88.30
2017-11-22T05:34:57.893Z,88.70
2017-11-22T05:37:25.524Z,88.00
2017-11-22T05:39:53.233Z,87.10
2017-11-22T05:42:20.875Z,90.20
2017-11-22T05:44:48.522Z,89.50
2017-11-22T05:47:16.209Z,89.40
2017-11-22T05:49:43.864Z,89.50
2017-11-22T05:52:11.511Z,90.40
2017-11-22T05:54:39.213Z,90.60
2017-11-22T05:57:06.840Z,90.00
2017-11-22T05:59:34.499Z,88.70
2017-11-22T06:02:02.225Z,88.70
2017-11-22T06:04:29.852Z,87.90
2017-11-22T06:06:57.490Z,88.20
2017-11-22T06:09:25.169Z,87.40
2017-11-22T06:11:52.813Z,86.80
2017-11-22T06:14:20.460Z,85.90
2017-11-22T06:16:48.176Z,87.00
2017-11-22T06:19:15.829Z,89.00
2017-11-22T06:21:44.076Z,89.30
2017-11-22T06:24:11.777Z,88.00
2017-11-22T06:26:39.433Z,87.30
2017-11-22T06:29:07.070Z,87.80
2017-11-22T06:31:34.792Z,87.00
2017-11-22T06:34:02.435Z,86.80
2017-11-22T06:36:30.080Z,86.90
2017-11-22T06:38:57.778Z,87.30
2017-11-22T06:41:25.415Z,87.10
2017-11-22T06:43:53.054Z,87.10
2017-11-22T06:48:48.415Z,87.30
2017-11-22T06:53:56.094Z,87.30
2017-11-22T06:56:23.738Z,87.10
2017-11-22T06:58:51.379Z,85.80
2017-11-22T07:01:19.077Z,86.90
2017-11-22T07:03:52.319Z,89.10
2017-11-22T07:06:20.047Z,90.70
2017-11-22T07:08:47.687Z,89.80
2017-11-22T07:11:16.272Z,89.70
2017-11-22T07:13:43.990Z,88.60
2017-11-22T07:16:17.230Z,90.80
2017-11-22T07:18:45.907Z,91.40
2017-11-22T07:21:13.567Z,91.00
2017-11-22T07:23:41.216Z,90.20
2017-11-22T07:28:37.432Z,91.60
2017-11-22T07:31:05.072Z,91.90
2017-11-22T07:33:33.663Z,90.60
2017-11-22T07:36:06.935Z,89.60
2017-11-22T07:38:35.446Z,90.10
2017-11-22T07:41:03.082Z,91.40
2017-11-22T07:43:30.719Z,92.00
2017-11-22T07:45:58.444Z,92.00
2017-11-22T07:53:34.657Z,93.50
2017-11-22T07:56:02.316Z,93.30
2017-11-22T07:58:29.976Z,92.30
2017-11-22T08:00:57.691Z,90.50
2017-11-22T08:03:28.160Z,90.00
2017-11-22T08:08:23.526Z,90.60
2017-11-22T08:10:51.153Z,89.70
2017-11-22T08:13:18.804Z,89.20
2017-11-22T08:15:47.238Z,89.20
2017-11-22T08:18:14.875Z,88.40
2017-11-22T08:20:45.373Z,88.90
2017-11-22T08:23:13.090Z,88.10
2017-11-22T08:25:40.731Z,90.00
2017-11-22T08:28:08.378Z,90.40
2017-11-22T08:30:37.797Z,89.50
2017-11-22T08:33:05.456Z,91.00
2017-11-22T08:35:33.104Z,92.00
2017-11-22T08:38:00.826Z,92.20
2017-11-22T08:43:01.694Z,91.10
2017-11-22T08:45:29.341Z,90.60
2017-11-22T08:50:24.705Z,89.50
2017-11-22T08:52:52.347Z,89.00
2017-11-22T08:55:25.777Z,90.50
2017-11-22T08:57:59.008Z,90.50
2017-11-22T09:00:26.710Z,90.60
2017-11-22T09:02:55.289Z,89.60
2017-11-22T09:05:22.948Z,89.80
2017-11-22T09:07:50.655Z,89.30
2017-11-22T09:10:18.300Z,89.70
2017-11-22T09:15:27.493Z,89.30
2017-11-22T09:17:56.504Z,89.20
2017-11-22T09:20:24.145Z,89.60
2017-11-22T09:22:51.850Z,89.10
2017-11-22T09:25:22.324Z,89.70
2017-11-22T09:27:56.626Z,89.80
2017-11-22T09:32:51.921Z,88.40
2017-11-22T09:35:20.435Z,90.30
2017-11-22T09:37:48.085Z,89.10
2017-11-22T09:40:15.732Z,89.80
2017-11-22T09:42:43.427Z,91.10
2017-11-22T09:45:11.071Z,90.60
2017-11-22T09:47:38.721Z,89.40
2017-11-22T09:50:06.422Z,90.10
2017-11-22T09:52:34.065Z,89.90
2017-11-22T09:55:01.699Z,89.00
2017-11-22T09:57:29.419Z,89.60
2017-11-22T09:59:57.058Z,88.70
2017-11-22T10:02:24.701Z,89.30
2017-11-22T10:07:20.040Z,88.30
2017-11-22T10:09:47.691Z,89.00
2017-11-22T10:14:44.745Z,86.60
2017-11-22T10:19:43.758Z,85.60
2017-11-22T10:22:11.400Z,85.60
2017-11-22T10:27:18.224Z,89.40
2017-11-22T10:29:46.890Z,83.90
2017-11-22T10:32:20.086Z,85.30
2017-11-22T10:34:47.774Z,81.20
2017-11-22T10:37:15.407Z,84.40
2017-11-22T10:42:22.238Z,74.60
2017-11-22T10:44:49.870Z,77.40
2017-11-22T10:47:17.515Z,73.70
2017-11-22T10:49:45.201Z,77.10
2017-11-22T10:52:12.833Z,71.20
2017-11-22T10:57:08.164Z,73.00
2017-11-22T10:59:35.799Z,72.90
2017-11-22T11:02:04.239Z,69.30
2017-11-22T11:04:31.932Z,67.80
2017-11-22T11:06:59.558Z,66.60
2017-11-22T11:09:27.186Z,70.00
2017-11-22T11:11:54.880Z,67.00
2017-11-22T11:14:22.510Z,64.40
2017-11-22T11:16:50.142Z,63.60
2017-11-22T11:19:17.839Z,63.30
2017-11-22T11:21:45.465Z,64.80
2017-11-22T11:24:13.093Z,64.70
2017-11-22T11:26:40.811Z,64.10
2017-11-22T11:29:08.436Z,60.00
2017-11-22T11:31:36.061Z,65.50
2017-11-22T11:34:04.742Z,65.90
2017-11-22T11:36:34.346Z,65.30
2017-11-22T11:41:44.456Z,58.60
2017-11-22T11:44:13.044Z,63.00
2017-11-22T11:49:08.404Z,56.30
2017-11-22T11:51:36.034Z,56.70
2017-11-22T11:54:04.390Z,56.20
2017-11-22T11:56:32.087Z,53.40
2017-11-22T11:58:59.735Z,58.00
2017-11-22T12:01:27.372Z,60.40
2017-11-22T12:03:55.064Z,59.90
2017-11-22T12:06:22.699Z,53.50
2017-11-22T12:08:50.335Z,54.70
2017-11-22T12:11:18.046Z,53.00
2017-11-22T12:13:45.676Z,55.10
2017-11-22T12:16:13.302Z,58.00
2017-11-22T12:18:40.993Z,54.40
2017-11-22T12:21:09.593Z,56.50
2017-11-22T12:23:37.241Z,53.70
2017-11-22T12:26:04.962Z,56.20
2017-11-22T12:28:33.205Z,56.20
2017-11-22T12:31:00.832Z,56.20
2017-11-22T12:33:28.534Z,57.00
2017-11-22T12:35:57.002Z,58.00
2017-11-22T12:38:24.637Z,59.20
2017-11-22T12:40:52.329Z,59.70
2017-11-22T12:43:19.974Z,55.90
2017-11-22T12:48:16.166Z,55.20
2017-11-22T12:50:43.802Z,53.50
2017-11-22T12:53:11.964Z,55.60
2017-11-22T12:55:40.405Z,54.50
2017-11-22T13:00:48.662Z,53.50
2017-11-22T13:03:16.311Z,55.10
2017-11-22T13:05:43.946Z,54.80
2017-11-22T13:08:11.654Z,53.90
2017-11-22T13:10:44.974Z,51.90
2017-11-22T13:13:12.657Z,53.30
2017-11-22T13:15:40.302Z,50.50
2017-11-22T13:18:07.944Z,54.50
2017-11-22T13:20:35.654Z,51.40
2017-11-22T13:23:03.301Z,56.40
2017-11-22T13:25:30.940Z,53.30
2017-11-22T13:27:58.634Z,52.80
2017-11-22T13:30:26.288Z,54.30
2017-11-22T13:32:53.929Z,52.70
2017-11-22T13:35:22.473Z,50.90
2017-11-22T13:37:50.108Z,52.00
2017-11-22T13:40:17.733Z,50.60
2017-11-22T13:42:47.418Z,50.00
2017-11-22T13:45:15.049Z,48.60
2017-11-22T13:47:42.691Z,48.70
2017-11-22T13:52:38.066Z,49.80
2017-11-22T13:55:05.699Z,48.60
2017-11-22T13:57:33.385Z,49.00
2017-11-22T14:00:01.032Z,50.00
2017-11-22T14:02:28.663Z,50.70
2017-11-22T14:04:56.376Z,50.30
2017-11-22T14:07:24.383Z,49.20
2017-11-22T14:09:52.028Z,48.70
2017-11-22T14:12:19.717Z,51.00
2017-11-22T14:17:15.950Z,48.90
2017-11-22T14:19:43.664Z,49.80
2017-11-22T14:22:11.318Z,49.70
2017-11-22T14:24:38.946Z,49.00
2017-11-22T14:29:46.622Z,50.80
2017-11-22T14:32:15.281Z,48.40
2017-11-22T14:34:42.911Z,48.90
2017-11-22T14:37:11.306Z,48.60
2017-11-22T14:39:39.038Z,49.20
2017-11-22T14:42:06.669Z,49.00
2017-11-22T14:44:34.300Z,49.30
2017-11-22T14:47:02.019Z,48.40
2017-11-22T14:49:29.656Z,48.20
2017-11-22T14:54:25.010Z,51.20
2017-11-22T14:56:53.469Z,51.80
2017-11-22T14:59:21.125Z,52.50
2017-11-22T15:01:49.763Z,52.60
2017-11-22T15:04:17.455Z,54.00
2017-11-22T15:06:45.092Z,54.90
2017-11-22T15:09:12.810Z,56.10
2017-11-22T15:11:40.470Z,54.80
2017-11-22T15:16:36.625Z,56.20
2017-11-22T15:19:04.271Z,56.40
2017-11-22T15:21:31.909Z,57.00
2017-11-22T15:23:59.606Z,57.60
2017-11-22T15:26:27.272Z,59.50
2017-11-22T15:28:55.866Z,62.50
2017-11-22T15:31:23.583Z,64.30
2017-11-22T15:33:51.213Z,63.90
2017-11-22T15:36:18.853Z,65.20
2017-11-22T15:38:47.516Z,65.60
2017-11-22T15:41:15.166Z,66.00
2017-11-22T15:43:42.832Z,65.40
2017-11-22T15:46:10.514Z,67.00
2017-11-22T15:48:38.159Z,67.70
2017-11-22T15:51:05.792Z,68.00
2017-11-22T15:53:33.476Z,65.50
2017-11-22T15:58:40.731Z,65.30
2017-11-22T16:01:08.376Z,64.50
2017-11-22T16:03:36.019Z,64.50
2017-11-22T16:06:04.678Z,65.60
2017-11-22T16:08:32.327Z,65.50
2017-11-22T16:11:00.918Z,66.70
2017-11-22T16:13:28.637Z,67.80
2017-11-22T16:15:56.302Z,68.50
2017-11-22T16:18:23.951Z,67.80
2017-11-22T16:20:51.700Z,67.50
2017-11-22T16:23:19.353Z,66.00
2017-11-22T16:25:46.991Z,66.40
2017-11-22T16:28:14.705Z,65.90
2017-11-22T16:30:43.172Z,66.60
2017-11-22T16:33:11.772Z,65.50
2017-11-22T16:35:39.489Z,65.80
2017-11-22T16:38:07.125Z,65.00
2017-11-22T16:40:34.781Z,65.40
2017-11-22T16:43:03.298Z,66.60
2017-11-22T16:45:30.951Z,65.50
2017-11-22T16:47:58.589Z,66.30
2017-11-22T16:50:26.315Z,66.00
2017-11-22T16:52:53.953Z,65.90
2017-11-22T16:55:22.477Z,66.40
2017-11-22T17:00:17.834Z,67.20
2017-11-22T17:02:45.471Z,66.30
2017-11-22T17:05:13.202Z,67.80
2017-11-22T17:07:40.850Z,67.80
2017-11-22T17:10:08.510Z,69.00
2017-11-22T17:12:36.226Z,70.30
2017-11-22T17:17:45.037Z,70.60
2017-11-22T17:20:12.692Z,70.00
2017-11-22T17:25:09.013Z,68.40
2017-11-22T17:27:36.648Z,67.60
2017-11-22T17:30:04.298Z,68.80
2017-11-22T17:32:32.010Z,69.70
2017-11-22T17:35:00.132Z,71.20
2017-11-22T17:37:28.273Z,70.30
2017-11-22T17:39:55.963Z,69.70
2017-11-22T17:42:23.608Z,70.40
2017-11-22T17:44:51.246Z,70.80
2017-11-22T17:47:18.978Z,70.30
2017-11-22T17:49:46.621Z,70.80
2017-11-22T17:52:14.754Z,71.60
2017-11-22T17:54:43.503Z,71.00
2017-11-22T17:59:53.365Z,72.50
2017-11-22T18:02:21.448Z,72.20
2017-11-22T18:04:50.803Z,72.70
2017-11-22T18:07:18.511Z,72.50
2017-11-22T18:09:46.158Z,71.90
2017-11-22T18:12:14.753Z,71.10
2017-11-22T18:17:11.047Z,70.60
2017-11-22T18:19:39.285Z,70.90
2017-11-22T18:22:07.475Z,72.70
2017-11-22T18:24:35.158Z,72.90
2017-11-22T18:27:02.864Z,72.50
2017-11-22T18:29:30.550Z,75.10
2017-11-22T18:31:59.170Z,74.50
2017-11-22T18:34:26.830Z,74.20
2017-11-22T18:36:54.859Z,73.50
2017-11-22T18:39:22.492Z,74.10
2017-11-22T18:41:50.167Z,75.70
2017-11-22T18:44:17.873Z,74.00
2017-11-22T18:46:45.512Z,73.60
2017-11-22T18:49:13.250Z,73.40
2017-11-22T18:51:40.963Z,76.60
2017-11-22T18:54:08.592Z,75.70
2017-11-22T18:56:36.258Z,76.30
2017-11-22T18:59:04.027Z,75.90
2017-11-22T19:01:32.186Z,75.60
2017-11-22T19:03:59.840Z,74.70
2017-11-22T19:06:27.529Z,74.80
2017-11-22T19:08:56.153Z,75.30
2017-11-22T19:11:23.853Z,74.00
2017-11-22T19:13:51.547Z,75.00
2017-11-22T19:16:19.241Z,75.10
2017-11-22T19:21:26.779Z,75.00
2017-11-22T19:23:54.441Z,74.70
2017-11-22T19:26:22.080Z,74.30
2017-11-22T19:31:18.252Z,74.40
2017-11-22T19:33:57.602Z,73.40
2017-11-22T19:36:25.260Z,74.60
2017-11-22T19:38:52.907Z,77.00
2017-11-22T19:41:20.660Z,77.20
2017-11-22T19:46:16.002Z,76.10
2017-11-22T19:48:43.734Z,76.80
2017-11-22T19:51:11.416Z,76.10
2017-11-22T19:53:39.093Z,76.50
2017-11-22T19:56:06.808Z,77.90
2017-11-22T19:58:34.484Z,78.00
2017-11-22T20:01:02.189Z,78.50
2017-11-22T20:03:29.855Z,79.90
2017-11-22T20:05:57.503Z,78.90
2017-11-22T20:08:36.941Z,78.30
2017-11-22T20:11:04.600Z,77.00
2017-11-22T20:13:32.231Z,77.50
2017-11-22T20:16:00.156Z,76.00
2017-11-22T20:18:27.766Z,75.40
2017-11-22T20:20:56.703Z,75.20
2017-11-22T20:23:23.724Z,77.40
2017-11-22T20:25:51.454Z,76.20
2017-11-22T20:28:19.351Z,78.60
2017-11-22T20:30:47.089Z,79.80
2017-11-22T20:35:54.222Z,77.50
2017-11-22T20:38:21.846Z,77.00
2017-11-22T20:43:29.614Z,76.40
2017-11-22T20:45:57.408Z,76.90
2017-11-22T20:53:43.648Z,77.50
2017-11-22T20:56:14.417Z,76.10
2017-11-22T20:58:42.130Z,75.60
2017-11-22T21:01:10.240Z,76.90
2017-11-22T21:03:37.965Z,77.30
2017-11-22T21:06:07.855Z,77.30
2017-11-22T21:11:02.081Z,77.50
2017-11-22T21:13:29.958Z,77.10
2017-11-22T21:18:31.178Z,76.50
2017-11-22T21:20:58.844Z,76.70
2017-11-22T21:23:26.647Z,77.10
2017-11-22T21:25:54.433Z,76.90
2017-11-22T21:28:23.348Z,77.50
2017-11-22T21:30:51.093Z,78.60
2017-11-22T21:33:19.684Z,79.30
2017-11-22T21:38:27.256Z,78.00
2017-11-22T21:40:54.967Z,78.40
2017-11-22T21:43:22.584Z,78.30
2017-11-22T21:45:50.352Z,78.30
2017-11-22T21:48:18.057Z,78.50
2017-11-22T21:50:45.706Z,78.70
2017-11-22T21:53:13.390Z,78.20
2017-11-22T21:55:41.024Z,77.80
2017-11-22T21:58:08.659Z,78.20
2017-11-22T22:00:36.376Z,79.20
2017-11-22T22:03:04.010Z,80.10
2017-11-22T22:05:31.655Z,79.60
2017-11-22T22:07:59.329Z,80.20
2017-11-22T22:12:54.619Z,80.30
2017-11-22T22:15:22.683Z,80.90
2017-11-22T22:17:49.966Z,80.90
2017-11-22T22:20:17.588Z,79.50
2017-11-22T22:22:45.284Z,78.90
2017-11-22T22:25:12.926Z,78.70
2017-11-22T22:27:40.567Z,78.60
2017-11-22T22:30:08.262Z,79.20
2017-11-22T22:32:35.896Z,79.90
2017-11-22T22:35:03.522Z,78.40
2017-11-22T22:37:31.380Z,78.20
2017-11-22T22:39:59.023Z,78.90
2017-11-22T22:44:54.358Z,78.50
2017-11-22T22:47:22.267Z,78.00
2017-11-22T22:49:49.911Z,79.30
2017-11-22T22:52:17.619Z,80.20
2017-11-22T22:54:45.255Z,79.90
2017-11-22T22:57:12.920Z,80.30
2017-11-22T23:02:19.456Z,81.20
2017-11-22T23:04:48.218Z,80.40
2017-11-22T23:07:15.854Z,79.40
2017-11-22T23:09:43.471Z,81.40
2017-11-22T23:12:14.357Z,80.30
2017-11-22T23:14:41.984Z,82.50
2017-11-22T23:17:09.662Z,81.90
2017-11-22T23:19:37.356Z,81.20
2017-11-22T23:24:32.624Z,80.30
2017-11-22T23:27:00.339Z,79.40
2017-11-22T23:31:55.611Z,82.30
2017-11-22T23:34:23.324Z,83.50
2017-11-22T23:39:18.581Z,82.60
2017-11-22T23:41:46.286Z,81.10
2017-11-22T23:44:13.926Z,80.80
2017-11-22T23:46:41.569Z,81.00
2017-11-22T23:49:09.246Z,81.60
2017-11-22T23:51:36.899Z,81.80
2017-11-22T23:54:04.534Z,82.30
2017-11-22T23:56:32.237Z,82.70
2017-11-22T23:58:59.864Z,82.90
